aviador You're here:

KLFT Decoded Metar

LAFAYETTE in LA, USA
Report Time2017-08-19 10:53:00
UTC Time2017-08-19 11:12:21
Flight Rules vfr VFR
WindCalm
Visibility9999 m
Phenomena:N/A
Clouds:N/A
Expected CloudBase > 400 ft AGL from Temp-Dew spread
CeilingNone
Temp27°C (ISA +12)
Dew Point26°C (94% RH)
Heat Index31.2°C
QNH1016 hPa
Density Alt1,765 ft
Elevation36 ft
Report Wrong Elevation
Raw Report
KLFT 191053Z 00000KT 10SM CLR 27/26 A3000 RMK AO2 SLP159
T02670256=

Extra information for KLFT:More info

Metar Taf Metar & Taf Last 4 Metars F.Rules Stats Wind Profile Meteogram Temp Stats Airport Information Weather charts Add Link Nearby VenuesMetar ALERT Operation Metar Decoded Social comments

AIRNAV info for KLFT